Terminal Aerodrome Forecast
Issued by NWS

Home | Current Version | Previous Version | Text Only | Print | Product List | Glossary On
Versions: 1 2 3 4 5 6 7 8 9 10 11 12 13 14 15 16 17 18 19 20 21 22 23 24 25 26 27 28 29 30 31 32 33 34 35 36 37 38 39 40 41 42 43 44 45 46 47 48 49 50
000
FTUS43 KMKX 030520
TAFUES
TAF
KUES 030520Z 0306/0406 18003KT P6SM VCSH SCT050 BKN100
     FM030900 20004KT 5SM BR VCSH SCT040 BKN060
     FM031200 23006KT P6SM BKN040
     FM031500 25004KT P6SM SCT040 BKN150
     FM032100 01004KT P6SM VCTS SCT040CB BKN200
     FM040200 08004KT 5SM BR BKN040=

USA.gov is the U.S. government's official web portal to all federal, state and local government web resources and services.